createdAt,value
2019-03-12T00:01:57.227Z,1013.17
2019-03-12T00:02:57.240Z,1013.21
2019-03-12T00:03:57.254Z,1013.22
2019-03-12T00:04:57.266Z,1013.29
2019-03-12T00:05:57.281Z,1013.29
2019-03-12T00:06:57.293Z,1013.36
2019-03-12T00:07:57.306Z,1013.37
2019-03-12T00:08:57.324Z,1013.46
2019-03-12T00:09:57.332Z,1013.45
2019-03-12T00:10:57.345Z,1013.47
2019-03-12T00:11:57.365Z,1013.42
2019-03-12T00:12:57.372Z,1013.45
2019-03-12T00:13:57.385Z,1013.46
2019-03-12T00:14:57.398Z,1013.5
2019-03-12T00:15:57.411Z,1013.48
2019-03-12T00:17:57.437Z,1013.57
2019-03-12T00:18:57.452Z,1013.57
2019-03-12T00:19:57.464Z,1013.63
2019-03-12T00:20:57.476Z,1013.64
2019-03-12T00:21:57.490Z,1013.66
2019-03-12T00:22:57.503Z,1013.7
2019-03-12T00:23:57.517Z,1013.69
2019-03-12T00:24:57.529Z,1013.7
2019-03-12T00:25:57.544Z,1013.72
2019-03-12T00:26:57.556Z,1013.77
2019-03-12T00:27:57.568Z,1013.73
2019-03-12T00:28:57.583Z,1013.76
2019-03-12T00:29:57.596Z,1013.73
2019-03-12T00:30:57.609Z,1013.7
2019-03-12T00:31:57.622Z,1013.71
2019-03-12T00:33:57.649Z,1013.65
2019-03-12T00:34:57.663Z,1013.65
2019-03-12T00:35:57.674Z,1013.65
2019-03-12T00:36:57.688Z,1013.68
2019-03-12T00:37:57.701Z,1013.65
2019-03-12T00:38:57.714Z,1013.67
2019-03-12T00:39:57.729Z,1013.64
2019-03-12T00:40:57.742Z,1013.67
2019-03-12T00:41:57.754Z,1013.7
2019-03-12T00:42:57.772Z,1013.7
2019-03-12T00:43:57.780Z,1013.75
2019-03-12T00:44:57.796Z,1013.75
2019-03-12T00:45:57.807Z,1013.75
2019-03-12T00:46:57.821Z,1013.72
2019-03-12T00:48:57.847Z,1013.71
2019-03-12T00:49:57.859Z,1013.75
2019-03-12T00:50:57.873Z,1013.72
2019-03-12T00:51:57.886Z,1013.72
2019-03-12T00:52:57.900Z,1013.72
2019-03-12T00:53:57.911Z,1013.72
2019-03-12T00:54:57.927Z,1013.74
2019-03-12T00:55:57.939Z,1013.75
2019-03-12T00:56:57.951Z,1013.75
2019-03-12T00:57:57.964Z,1013.77
2019-03-12T00:58:57.978Z,1013.79
2019-03-12T00:59:57.991Z,1013.8
2019-03-12T01:00:58.003Z,1013.86
2019-03-12T01:01:58.016Z,1013.87
2019-03-12T01:02:58.030Z,1013.9
2019-03-12T01:03:58.044Z,1013.91
2019-03-12T01:04:58.055Z,1013.99
2019-03-12T01:05:58.073Z,1014.04
2019-03-12T01:06:58.081Z,1013.96
2019-03-12T01:07:58.094Z,1014
2019-03-12T01:08:58.107Z,1014.01
2019-03-12T01:09:58.121Z,1014.01
2019-03-12T01:10:58.134Z,1014.01
2019-03-12T01:11:58.147Z,1014.05
2019-03-12T01:12:58.160Z,1014.07
2019-03-12T01:13:58.173Z,1014.14
2019-03-12T01:14:58.186Z,1014.15
2019-03-12T01:15:58.198Z,1014.19
2019-03-12T01:16:58.211Z,1014.2
2019-03-12T01:17:58.225Z,1014.28
2019-03-12T01:18:58.237Z,1014.31
2019-03-12T01:20:58.264Z,1014.31
2019-03-12T01:21:58.277Z,1014.31
2019-03-12T01:22:58.289Z,1014.34
2019-03-12T01:23:58.404Z,1014.28
2019-03-12T01:24:58.321Z,1014.28
2019-03-12T01:25:58.348Z,1014.3
2019-03-12T01:26:58.342Z,1014.28
2019-03-12T01:27:58.356Z,1014.34
2019-03-12T01:28:58.368Z,1014.36
2019-03-12T01:29:58.381Z,1014.37
2019-03-12T01:30:58.394Z,1014.35
2019-03-12T01:31:58.407Z,1014.38
2019-03-12T01:32:58.423Z,1014.42
2019-03-12T01:33:58.434Z,1014.41
2019-03-12T01:34:58.446Z,1014.42
2019-03-12T01:36:58.473Z,1014.46
2019-03-12T01:37:58.485Z,1014.43
2019-03-12T01:38:58.499Z,1014.45
2019-03-12T01:39:58.514Z,1014.5
2019-03-12T01:40:58.525Z,1014.49
2019-03-12T01:41:58.539Z,1014.55
2019-03-12T01:42:58.552Z,1014.48
2019-03-12T01:43:58.566Z,1014.48
2019-03-12T01:44:58.577Z,1014.52
2019-03-12T01:45:58.591Z,1014.48
2019-03-12T01:46:58.604Z,1014.55
2019-03-12T01:47:58.617Z,1014.47
2019-03-12T01:48:58.631Z,1014.56
2019-03-12T01:49:58.643Z,1014.57
2019-03-12T01:50:58.657Z,1014.59
2019-03-12T01:52:58.683Z,1014.7
2019-03-12T01:53:58.703Z,1014.66
2019-03-12T01:54:58.710Z,1014.61
2019-03-12T01:55:58.723Z,1014.64
2019-03-12T01:56:58.739Z,1014.66
2019-03-12T01:57:58.750Z,1014.66
2019-03-12T01:58:58.763Z,1014.69
2019-03-12T01:59:58.775Z,1014.71
2019-03-12T02:00:58.799Z,1014.7
2019-03-12T02:01:58.803Z,1014.73
2019-03-12T02:02:58.815Z,1014.71
2019-03-12T02:03:58.829Z,1014.69
2019-03-12T02:04:58.842Z,1014.58
2019-03-12T02:05:58.856Z,1014.57
2019-03-12T02:06:58.869Z,1014.56
2019-03-12T02:08:58.895Z,1014.65
2019-03-12T02:09:58.908Z,1014.66
2019-03-12T02:10:58.921Z,1014.66
2019-03-12T02:11:58.935Z,1014.64
2019-03-12T02:12:58.949Z,1014.69
2019-03-12T02:13:58.962Z,1014.68
2019-03-12T02:14:58.975Z,1014.67
2019-03-12T02:15:58.988Z,1014.71
2019-03-12T02:16:59.002Z,1014.61
2019-03-12T02:17:59.015Z,1014.66
2019-03-12T02:18:59.030Z,1014.68
2019-03-12T02:19:59.042Z,1014.71
2019-03-12T02:20:59.055Z,1014.62
2019-03-12T02:21:59.069Z,1014.68
2019-03-12T02:23:59.097Z,1014.72
2019-03-12T02:24:59.109Z,1014.71
2019-03-12T02:25:59.123Z,1014.73
2019-03-12T02:26:59.136Z,1014.72
2019-03-12T02:27:59.149Z,1014.72
2019-03-12T02:28:59.162Z,1014.72
2019-03-12T02:29:59.176Z,1014.76
2019-03-12T02:30:59.191Z,1014.78
2019-03-12T02:31:59.208Z,1014.78
2019-03-12T02:32:59.232Z,1014.85
2019-03-12T02:33:59.249Z,1014.83
2019-03-12T02:34:59.245Z,1014.82
2019-03-12T02:35:59.256Z,1014.84
2019-03-12T02:36:59.274Z,1014.82
2019-03-12T02:37:59.290Z,1014.81
2019-03-12T02:38:59.298Z,1014.83
2019-03-12T02:39:59.310Z,1014.88
2019-03-12T02:40:59.324Z,1014.84
2019-03-12T02:41:59.338Z,1014.83
2019-03-12T02:42:59.351Z,1014.85
2019-03-12T02:43:59.364Z,1014.9
2019-03-12T02:44:59.383Z,1014.88
2019-03-12T02:45:59.395Z,1014.88
2019-03-12T02:46:59.417Z,1014.95
2019-03-12T02:47:59.425Z,1014.98
2019-03-12T02:48:59.435Z,1015.01
2019-03-12T02:49:59.447Z,1014.99
2019-03-12T02:50:59.459Z,1014.97
2019-03-12T02:51:59.475Z,1014.93
2019-03-12T02:52:59.488Z,1014.91
2019-03-12T02:53:59.500Z,1014.91
2019-03-12T02:56:01.702Z,1014.88
2019-03-12T02:56:59.547Z,1014.9
2019-03-12T02:57:59.556Z,1014.85
2019-03-12T02:58:59.570Z,1014.89
2019-03-12T02:59:59.582Z,1014.85
2019-03-12T03:00:59.713Z,1014.92
2019-03-12T03:01:59.610Z,1014.94
2019-03-12T03:02:59.623Z,1014.93
2019-03-12T03:03:59.636Z,1014.91
2019-03-12T03:04:59.649Z,1014.95
2019-03-12T03:05:59.664Z,1014.95
2019-03-12T03:06:59.678Z,1014.95
2019-03-12T03:07:59.693Z,1014.96
2019-03-12T03:08:59.709Z,1014.92
2019-03-12T03:09:59.717Z,1014.97
2019-03-12T03:11:59.745Z,1014.98
2019-03-12T03:12:59.758Z,1015.04
2019-03-12T03:13:59.774Z,1014.98
2019-03-12T03:14:59.786Z,1015.02
2019-03-12T03:15:59.806Z,1015.02
2019-03-12T03:16:59.812Z,1015.01
2019-03-12T03:17:59.831Z,1015.02
2019-03-12T03:18:59.851Z,1015.03
2019-03-12T03:19:59.854Z,1015.07
2019-03-12T03:20:59.867Z,1015.08
2019-03-12T03:21:59.883Z,1015.09
2019-03-12T03:22:59.895Z,1015.09
2019-03-12T03:23:59.916Z,1015.09
2019-03-12T03:24:59.921Z,1015.07
2019-03-12T03:25:59.936Z,1015.14
2019-03-12T03:27:59.970Z,1015.19
2019-03-12T03:28:59.977Z,1015.15
2019-03-12T03:29:59.992Z,1015.19
2019-03-12T03:31:00.035Z,1015.18
2019-03-12T03:32:00.021Z,1015.21
2019-03-12T03:33:00.039Z,1015.19
2019-03-12T03:34:00.048Z,1015.17
2019-03-12T03:35:00.059Z,1015.19
2019-03-12T03:36:00.088Z,1015.18
2019-03-12T03:37:00.087Z,1015.19
2019-03-12T03:38:00.102Z,1015.17
2019-03-12T03:39:00.117Z,1015.18
2019-03-12T03:40:00.223Z,1015.19
2019-03-12T03:41:00.144Z,1015.16
2019-03-12T03:42:00.178Z,1015.18
2019-03-12T03:44:00.189Z,1015.19
2019-03-12T03:45:00.386Z,1015.16
2019-03-12T03:46:00.213Z,1015.12
2019-03-12T03:47:00.224Z,1015.12
2019-03-12T03:48:00.238Z,1015.12
2019-03-12T03:49:00.252Z,1015.08
2019-03-12T03:50:00.453Z,1015.07
2019-03-12T03:51:00.279Z,1015.09
2019-03-12T03:52:00.295Z,1015.07
2019-03-12T03:53:00.306Z,1015.08
2019-03-12T03:54:00.319Z,1015.05
2019-03-12T03:55:00.565Z,1015.04
2019-03-12T03:56:00.348Z,1015.06
2019-03-12T03:57:00.454Z,1015.06
2019-03-12T03:59:00.391Z,1015.07
2019-03-12T04:00:00.780Z,1015.06
2019-03-12T04:01:00.422Z,1015.08
2019-03-12T04:02:00.430Z,1015.06
2019-03-12T04:03:00.501Z,1015.03
2019-03-12T04:04:00.458Z,1015.1
2019-03-12T04:05:00.643Z,1015.06
2019-03-12T04:06:00.488Z,1015.11
2019-03-12T04:07:00.499Z,1015.1
2019-03-12T04:08:00.518Z,1015.13
2019-03-12T04:09:00.527Z,1015.12
2019-03-12T04:10:00.541Z,1015.14
2019-03-12T04:11:00.554Z,1015.13
2019-03-12T04:12:00.574Z,1015.17
2019-03-12T04:13:00.583Z,1015.16
2019-03-12T04:14:00.597Z,1015.13
2019-03-12T04:15:00.616Z,1015.12
2019-03-12T04:16:00.625Z,1015.16
2019-03-12T04:17:00.638Z,1015.17
2019-03-12T04:18:00.654Z,1015.17
2019-03-12T04:19:00.665Z,1015.18
2019-03-12T04:20:00.684Z,1015.21
2019-03-12T04:21:00.694Z,1015.23
2019-03-12T04:22:00.709Z,1015.25
2019-03-12T04:23:00.723Z,1015.27
2019-03-12T04:24:00.736Z,1015.24
2019-03-12T04:25:00.749Z,1015.25
2019-03-12T04:26:00.791Z,1015.22
2019-03-12T04:27:00.779Z,1015.24
2019-03-12T04:28:00.795Z,1015.25
2019-03-12T04:29:00.804Z,1015.26
2019-03-12T04:31:00.833Z,1015.18
2019-03-12T04:32:00.847Z,1015.13
2019-03-12T04:33:00.860Z,1015.13
2019-03-12T04:34:00.874Z,1015.19
2019-03-12T04:35:00.888Z,1015.17
2019-03-12T04:36:00.903Z,1015.22
2019-03-12T04:37:00.916Z,1015.13
2019-03-12T04:38:00.929Z,1015.25
2019-03-12T04:39:00.944Z,1015.24
2019-03-12T04:40:00.957Z,1015.25
2019-03-12T04:41:00.971Z,1015.25
2019-03-12T04:42:00.986Z,1015.26
2019-03-12T04:43:00.999Z,1015.27
2019-03-12T04:44:01.012Z,1015.3
2019-03-12T04:45:01.027Z,1015.32
2019-03-12T04:47:01.055Z,1015.3
2019-03-12T04:48:01.068Z,1015.32
2019-03-12T04:49:01.083Z,1015.29
2019-03-12T04:50:01.096Z,1015.31
2019-03-12T04:51:01.110Z,1015.36
2019-03-12T04:52:01.124Z,1015.32
2019-03-12T04:53:01.138Z,1015.31
2019-03-12T04:54:01.152Z,1015.3
2019-03-12T04:55:01.166Z,1015.28
2019-03-12T04:56:01.180Z,1015.21
2019-03-12T04:57:01.194Z,1015.23
2019-03-12T04:58:01.208Z,1015.24
2019-03-12T04:59:01.222Z,1015.26
2019-03-12T05:00:01.236Z,1015.27
2019-03-12T05:01:01.250Z,1015.2
2019-03-12T05:03:01.280Z,1015.19
2019-03-12T05:04:01.392Z,1015.17
2019-03-12T05:05:01.306Z,1015.21
2019-03-12T05:06:01.319Z,1015.21
2019-03-12T05:07:01.333Z,1015.2
2019-03-12T05:08:01.347Z,1015.21
2019-03-12T05:09:01.361Z,1015.19
2019-03-12T05:10:01.376Z,1015.21
2019-03-12T05:11:01.389Z,1015.27
2019-03-12T05:12:01.403Z,1015.25
2019-03-12T05:13:01.417Z,1015.28
2019-03-12T05:14:01.430Z,1015.26
2019-03-12T05:15:01.445Z,1015.24
2019-03-12T05:16:01.460Z,1015.29
2019-03-12T05:17:01.472Z,1015.29
2019-03-12T05:19:01.501Z,1015.31
2019-03-12T05:20:01.514Z,1015.35
2019-03-12T05:21:01.528Z,1015.3
2019-03-12T05:22:01.545Z,1015.27
2019-03-12T05:23:01.556Z,1015.29
2019-03-12T05:24:01.596Z,1015.29
2019-03-12T05:25:01.591Z,1015.29
2019-03-12T05:26:01.609Z,1015.35
2019-03-12T05:27:01.613Z,1015.35
2019-03-12T05:28:01.627Z,1015.34
2019-03-12T05:29:01.639Z,1015.32
2019-03-12T05:30:01.656Z,1015.41
2019-03-12T05:31:01.669Z,1015.29
2019-03-12T05:32:01.691Z,1015.39
2019-03-12T05:34:01.719Z,1015.45
2019-03-12T05:35:01.730Z,1015.47
2019-03-12T05:36:01.738Z,1015.43
2019-03-12T05:37:01.753Z,1015.51
2019-03-12T05:38:01.767Z,1015.46
2019-03-12T05:39:01.780Z,1015.52
2019-03-12T05:40:01.799Z,1015.45
2019-03-12T05:41:01.808Z,1015.43
2019-03-12T05:42:01.822Z,1015.47
2019-03-12T05:43:01.836Z,1015.47
2019-03-12T05:44:01.850Z,1015.46
2019-03-12T05:45:01.864Z,1015.46
2019-03-12T05:46:01.877Z,1015.49
2019-03-12T05:47:01.894Z,1015.43
2019-03-12T05:48:01.907Z,1015.48
2019-03-12T05:49:01.920Z,1015.54
2019-03-12T05:50:01.952Z,1015.49
2019-03-12T05:51:01.947Z,1015.46
2019-03-12T05:52:01.962Z,1015.46
2019-03-12T05:53:01.976Z,1015.44
2019-03-12T05:54:01.993Z,1015.46
2019-03-12T05:55:02.004Z,1015.5
2019-03-12T05:56:02.022Z,1015.54
2019-03-12T05:57:02.031Z,1015.55
2019-03-12T05:58:02.045Z,1015.58
2019-03-12T05:59:02.060Z,1015.58
2019-03-12T06:00:02.074Z,1015.63
2019-03-12T06:01:02.087Z,1015.63
2019-03-12T06:02:02.103Z,1015.65
2019-03-12T06:03:02.115Z,1015.61
2019-03-12T06:04:02.129Z,1015.66
2019-03-12T06:06:02.157Z,1015.64
2019-03-12T06:07:02.173Z,1015.64
2019-03-12T06:08:02.185Z,1015.65
2019-03-12T06:09:02.199Z,1015.64
2019-03-12T06:10:02.213Z,1015.65
2019-03-12T06:11:02.228Z,1015.67
2019-03-12T06:12:02.240Z,1015.62
2019-03-12T06:13:02.254Z,1015.66
2019-03-12T06:14:02.274Z,1015.66
2019-03-12T06:15:02.282Z,1015.62
2019-03-12T06:16:02.296Z,1015.65
2019-03-12T06:17:02.310Z,1015.63
2019-03-12T06:18:02.325Z,1015.61
2019-03-12T06:19:02.338Z,1015.6
2019-03-12T06:20:02.352Z,1015.64
2019-03-12T06:22:02.381Z,1015.64
2019-03-12T06:23:02.394Z,1015.59
2019-03-12T06:24:02.408Z,1015.62
2019-03-12T06:25:02.425Z,1015.62
2019-03-12T06:26:02.436Z,1015.61
2019-03-12T06:27:02.450Z,1015.61
2019-03-12T06:28:02.465Z,1015.6
2019-03-12T06:29:02.480Z,1015.61
2019-03-12T06:30:02.492Z,1015.62
2019-03-12T06:31:02.506Z,1015.6
2019-03-12T06:32:02.520Z,1015.58
2019-03-12T06:33:02.535Z,1015.62
2019-03-12T06:34:02.548Z,1015.59
2019-03-12T06:35:02.564Z,1015.57
2019-03-12T06:36:02.582Z,1015.55
2019-03-12T06:38:02.605Z,1015.55
2019-03-12T06:39:02.720Z,1015.56
2019-03-12T06:40:02.634Z,1015.53
2019-03-12T06:41:02.694Z,1015.54
2019-03-12T06:42:02.663Z,1015.55
2019-03-12T06:43:02.678Z,1015.58
2019-03-12T06:44:02.695Z,1015.59
2019-03-12T06:45:02.712Z,1015.57
2019-03-12T06:46:02.723Z,1015.56
2019-03-12T06:47:02.736Z,1015.59
2019-03-12T06:48:02.753Z,1015.59
2019-03-12T06:49:02.764Z,1015.59
2019-03-12T06:50:02.778Z,1015.63
2019-03-12T06:51:02.794Z,1015.61
2019-03-12T06:52:02.807Z,1015.66
2019-03-12T06:54:02.836Z,1015.66
2019-03-12T06:55:02.850Z,1015.64
2019-03-12T06:56:02.865Z,1015.66
2019-03-12T06:57:02.880Z,1015.68
2019-03-12T06:58:02.894Z,1015.63
2019-03-12T06:59:02.907Z,1015.67
2019-03-12T07:00:02.922Z,1015.71
2019-03-12T07:01:02.938Z,1015.77
2019-03-12T07:02:02.956Z,1015.72
2019-03-12T07:03:03.018Z,1015.75
2019-03-12T07:04:02.981Z,1015.75
2019-03-12T07:05:02.996Z,1015.75
2019-03-12T07:06:03.010Z,1015.74
2019-03-12T07:07:06.723Z,1015.75
2019-03-12T07:09:03.068Z,1015.64
2019-03-12T07:10:03.071Z,1015.65
2019-03-12T07:11:03.093Z,1015.61
2019-03-12T07:12:03.100Z,1015.58
2019-03-12T07:13:03.114Z,1015.55
2019-03-12T07:14:03.128Z,1015.59
2019-03-12T07:15:03.143Z,1015.54
2019-03-12T07:16:03.158Z,1015.52
2019-03-12T07:17:03.172Z,1015.58
2019-03-12T07:18:03.188Z,1015.56
2019-03-12T07:19:03.202Z,1015.58
2019-03-12T07:20:03.221Z,1015.62
2019-03-12T07:21:03.242Z,1015.57
2019-03-12T07:22:03.246Z,1015.59
2019-03-12T07:23:03.262Z,1015.6
2019-03-12T07:24:03.278Z,1015.63
2019-03-12T07:25:03.290Z,1015.63
2019-03-12T07:26:03.305Z,1015.59
2019-03-12T07:27:03.322Z,1015.6
2019-03-12T07:28:03.334Z,1015.6
2019-03-12T07:29:03.351Z,1015.58
2019-03-12T07:30:03.364Z,1015.54
2019-03-12T07:31:03.408Z,1015.6
2019-03-12T07:32:03.397Z,1015.58
2019-03-12T07:33:03.410Z,1015.58
2019-03-12T07:34:03.424Z,1015.64
2019-03-12T07:35:03.438Z,1015.63
2019-03-12T07:36:03.555Z,1015.61
2019-03-12T07:37:03.470Z,1015.59
2019-03-12T07:38:03.483Z,1015.58
2019-03-12T07:39:03.499Z,1015.58
2019-03-12T07:41:03.530Z,1015.55
2019-03-12T07:42:03.653Z,1015.6
2019-03-12T07:43:03.556Z,1015.55
2019-03-12T07:44:03.573Z,1015.6
2019-03-12T07:45:03.587Z,1015.58
2019-03-12T07:46:03.605Z,1015.56
2019-03-12T07:47:03.616Z,1015.5
2019-03-12T07:48:03.631Z,1015.52
2019-03-12T07:49:03.747Z,1015.54
2019-03-12T07:50:03.660Z,1015.47
2019-03-12T07:51:03.675Z,1015.47
2019-03-12T07:52:03.691Z,1015.41
2019-03-12T07:53:03.706Z,1015.55
2019-03-12T07:54:03.720Z,1015.59
2019-03-12T07:55:03.736Z,1015.52
2019-03-12T07:57:03.768Z,1015.45
2019-03-12T07:58:03.784Z,1015.47
2019-03-12T07:59:03.798Z,1015.46
2019-03-12T08:00:03.814Z,1015.45
2019-03-12T08:01:03.830Z,1015.5
2019-03-12T08:02:03.845Z,1015.53
2019-03-12T08:03:03.861Z,1015.42
2019-03-12T08:04:03.877Z,1015.46
2019-03-12T08:05:03.894Z,1015.5
2019-03-12T08:06:03.908Z,1015.5
2019-03-12T08:07:03.925Z,1015.53
2019-03-12T08:08:03.941Z,1015.44
2019-03-12T08:09:03.956Z,1015.48
2019-03-12T08:10:03.972Z,1015.5
2019-03-12T08:11:03.994Z,1015.5
2019-03-12T08:13:04.021Z,1015.46
2019-03-12T08:14:04.036Z,1015.45
2019-03-12T08:15:04.054Z,1015.51
2019-03-12T08:16:04.068Z,1015.44
2019-03-12T08:17:04.085Z,1015.45
2019-03-12T08:18:04.100Z,1015.44
2019-03-12T08:19:04.117Z,1015.44
2019-03-12T08:20:04.137Z,1015.44
2019-03-12T08:21:04.148Z,1015.45
2019-03-12T08:22:04.165Z,1015.39
2019-03-12T08:23:04.180Z,1015.4
2019-03-12T08:24:04.199Z,1015.39
2019-03-12T08:25:04.212Z,1015.44
2019-03-12T08:26:04.231Z,1015.43
2019-03-12T08:27:04.247Z,1015.45
2019-03-12T08:29:04.278Z,1015.4
2019-03-12T08:30:04.292Z,1015.37
2019-03-12T08:31:04.307Z,1015.34
2019-03-12T08:32:04.324Z,1015.35
2019-03-12T08:33:04.339Z,1015.32
2019-03-12T08:34:04.354Z,1015.33
2019-03-12T08:35:04.370Z,1015.3
2019-03-12T08:36:04.386Z,1015.31
2019-03-12T08:37:04.402Z,1015.3
2019-03-12T08:38:04.417Z,1015.3
2019-03-12T08:39:04.433Z,1015.29
2019-03-12T08:40:04.450Z,1015.32
2019-03-12T08:41:04.470Z,1015.27
2019-03-12T08:42:04.482Z,1015.25
2019-03-12T08:44:04.515Z,1015.27
2019-03-12T08:45:04.531Z,1015.26
2019-03-12T08:46:04.553Z,1015.24
2019-03-12T08:47:04.563Z,1015.27
2019-03-12T08:48:04.579Z,1015.23
2019-03-12T08:49:04.595Z,1015.25
2019-03-12T08:50:04.613Z,1015.23
2019-03-12T08:51:05.322Z,1015.21
2019-03-12T08:52:04.644Z,1015.21
2019-03-12T08:53:04.661Z,1015.19
2019-03-12T08:54:04.676Z,1015.19
2019-03-12T08:55:04.693Z,1015.16
2019-03-12T08:56:04.708Z,1015.16
2019-03-12T08:57:04.725Z,1015.1
2019-03-12T08:58:04.742Z,1015.14
2019-03-12T08:59:04.757Z,1015.14
2019-03-12T09:00:04.774Z,1015.13
2019-03-12T09:01:04.790Z,1015.1
2019-03-12T09:02:04.811Z,1015.13
2019-03-12T09:03:04.824Z,1015.12
2019-03-12T09:04:04.845Z,1015.11
2019-03-12T09:05:04.854Z,1015.13
2019-03-12T09:06:04.881Z,1015.09
2019-03-12T09:07:05.278Z,1015.15
2019-03-12T09:08:04.903Z,1015.11
2019-03-12T09:09:04.920Z,1015.12
2019-03-12T09:10:04.936Z,1015.12
2019-03-12T09:11:04.954Z,1015.08
2019-03-12T09:12:04.968Z,1015.04
2019-03-12T09:13:04.984Z,1015.12
2019-03-12T09:14:05.006Z,1015.08
2019-03-12T09:16:05.033Z,1015.03
2019-03-12T09:17:05.050Z,1015.04
2019-03-12T09:18:05.066Z,1015.01
2019-03-12T09:19:05.085Z,1014.98
2019-03-12T09:20:05.099Z,1015.08
2019-03-12T09:21:05.116Z,1014.96
2019-03-12T09:22:05.133Z,1014.96
2019-03-12T09:23:05.150Z,1014.94
2019-03-12T09:24:05.167Z,1014.96
2019-03-12T09:25:05.183Z,1014.95
2019-03-12T09:26:05.201Z,1014.88
2019-03-12T09:27:05.219Z,1014.86
2019-03-12T09:28:05.236Z,1014.85
2019-03-12T09:29:05.252Z,1014.84
2019-03-12T09:30:05.369Z,1014.76
2019-03-12T09:32:05.305Z,1014.78
2019-03-12T09:33:05.322Z,1014.81
2019-03-12T09:34:05.340Z,1014.77
2019-03-12T09:35:05.360Z,1014.77
2019-03-12T09:36:05.375Z,1014.72
2019-03-12T09:37:05.393Z,1014.71
2019-03-12T09:38:05.411Z,1014.66
2019-03-12T09:39:05.432Z,1014.66
2019-03-12T09:40:05.522Z,1014.68
2019-03-12T09:41:05.466Z,1014.68
2019-03-12T09:42:05.500Z,1014.69
2019-03-12T09:43:05.502Z,1014.69
2019-03-12T09:44:05.524Z,1014.69
2019-03-12T09:45:05.537Z,1014.67
2019-03-12T09:46:05.654Z,1014.63
2019-03-12T09:48:05.589Z,1014.54
2019-03-12T09:49:05.607Z,1014.57
2019-03-12T09:50:05.625Z,1014.61
2019-03-12T09:51:05.641Z,1014.59
2019-03-12T09:52:05.659Z,1014.58
2019-03-12T09:53:05.679Z,1014.56
2019-03-12T09:54:05.696Z,1014.59
2019-03-12T09:55:05.796Z,1014.53
2019-03-12T09:56:05.732Z,1014.57
2019-03-12T09:57:05.750Z,1014.52
2019-03-12T09:58:05.767Z,1014.47
2019-03-12T09:59:05.786Z,1014.4
2019-03-12T10:00:15.275Z,1014.45
2019-03-12T10:01:05.859Z,1014.52
2019-03-12T10:02:05.843Z,1014.49
2019-03-12T10:04:05.906Z,1014.48
2019-03-12T10:05:05.899Z,1014.45
2019-03-12T10:06:05.918Z,1014.45
2019-03-12T10:07:05.936Z,1014.41
2019-03-12T10:08:05.955Z,1014.41
2019-03-12T10:09:06.026Z,1014.45
2019-03-12T10:10:05.993Z,1014.39
2019-03-12T10:11:06.113Z,1014.39
2019-03-12T10:12:06.031Z,1014.42
2019-03-12T10:13:06.054Z,1014.39
2019-03-12T10:14:06.069Z,1014.35
2019-03-12T10:15:06.088Z,1014.35
2019-03-12T10:16:06.107Z,1014.32
2019-03-12T10:17:06.134Z,1014.29
2019-03-12T10:19:06.167Z,1014.26
2019-03-12T10:20:06.189Z,1014.2
2019-03-12T10:21:06.205Z,1014.19
2019-03-12T10:22:06.220Z,1014.16
2019-03-12T10:23:06.240Z,1014.16
2019-03-12T10:24:06.257Z,1014.07
2019-03-12T10:25:06.276Z,1014.06
2019-03-12T10:26:06.297Z,1014.01
2019-03-12T10:27:06.314Z,1014.04
2019-03-12T10:28:06.332Z,1014.04
2019-03-12T10:29:06.358Z,1013.95
2019-03-12T10:30:06.371Z,1013.95
2019-03-12T10:31:06.389Z,1013.89
2019-03-12T10:32:06.411Z,1013.85
2019-03-12T10:33:06.428Z,1013.9
2019-03-12T10:34:06.454Z,1013.86
2019-03-12T10:35:06.465Z,1013.88
2019-03-12T10:36:06.550Z,1013.88
2019-03-12T10:37:11.641Z,1013.84
2019-03-12T10:38:06.522Z,1013.86
2019-03-12T10:39:06.543Z,1013.85
2019-03-12T10:40:06.564Z,1013.88
2019-03-12T10:41:06.580Z,1013.87
2019-03-12T10:42:06.597Z,1013.87
2019-03-12T10:43:06.619Z,1013.82
2019-03-12T10:44:06.669Z,1013.78
2019-03-12T10:45:06.657Z,1013.8
2019-03-12T10:46:06.673Z,1013.79
2019-03-12T10:47:06.692Z,1013.8
2019-03-12T10:48:06.714Z,1013.71
2019-03-12T10:49:06.730Z,1013.75
2019-03-12T10:51:06.770Z,1013.75
2019-03-12T10:52:06.788Z,1013.74
2019-03-12T10:53:06.806Z,1013.7
2019-03-12T10:54:06.835Z,1013.73
2019-03-12T10:55:12.682Z,1013.74
2019-03-12T10:56:06.866Z,1013.75
2019-03-12T10:57:06.882Z,1013.73
2019-03-12T10:58:06.909Z,1013.65
2019-03-12T10:59:06.922Z,1013.67
2019-03-12T11:00:06.939Z,1013.65
2019-03-12T11:01:06.958Z,1013.66
2019-03-12T11:02:06.979Z,1013.63
2019-03-12T11:03:06.998Z,1013.56
2019-03-12T11:04:07.016Z,1013.59
2019-03-12T11:05:07.036Z,1013.54
2019-03-12T11:07:16.177Z,1013.51
2019-03-12T11:08:07.221Z,1013.47
2019-03-12T11:09:07.114Z,1013.52
2019-03-12T11:10:07.132Z,1013.49
2019-03-12T11:11:07.152Z,1013.45
2019-03-12T11:12:07.170Z,1013.42
2019-03-12T11:13:07.190Z,1013.3
2019-03-12T11:14:07.209Z,1013.28
2019-03-12T11:15:07.229Z,1013.3
2019-03-12T11:16:07.247Z,1013.3
2019-03-12T11:17:07.268Z,1013.3
2019-03-12T11:18:07.289Z,1013.22
2019-03-12T11:19:07.305Z,1013.22
2019-03-12T11:20:07.324Z,1013.17
2019-03-12T11:21:07.343Z,1013.17
2019-03-12T11:23:07.381Z,1013.12
2019-03-12T11:24:07.400Z,1013.12
2019-03-12T11:25:07.420Z,1013.09
2019-03-12T11:26:07.437Z,1013.05
2019-03-12T11:27:07.458Z,1013.07
2019-03-12T11:28:07.477Z,1012.96
2019-03-12T11:29:07.496Z,1013.03
2019-03-12T11:30:07.517Z,1012.99
2019-03-12T11:31:07.537Z,1012.92
2019-03-12T11:32:07.554Z,1012.97
2019-03-12T11:33:07.572Z,1012.96
2019-03-12T11:34:07.591Z,1012.98
2019-03-12T11:35:07.616Z,1012.88
2019-03-12T11:36:07.635Z,1012.93
2019-03-12T11:37:07.649Z,1012.9
2019-03-12T11:39:07.687Z,1012.95
2019-03-12T11:40:07.714Z,1012.91
2019-03-12T11:41:07.739Z,1012.88
2019-03-12T11:42:07.772Z,1012.86
2019-03-12T11:43:07.776Z,1012.86
2019-03-12T11:44:07.785Z,1012.91
2019-03-12T11:45:14.539Z,1012.8
2019-03-12T11:46:08.103Z,1012.84
2019-03-12T11:47:07.940Z,1012.79
2019-03-12T11:48:07.859Z,1012.78
2019-03-12T11:49:07.938Z,1012.81
2019-03-12T11:50:07.927Z,1012.71
2019-03-12T11:51:07.918Z,1012.69
2019-03-12T11:52:07.938Z,1012.64
2019-03-12T11:54:07.976Z,1012.59
2019-03-12T11:55:07.995Z,1012.5
2019-03-12T11:56:08.028Z,1012.54
2019-03-12T11:57:08.033Z,1012.54
2019-03-12T11:58:08.055Z,1012.51
2019-03-12T11:59:08.075Z,1012.45
2019-03-12T12:00:08.119Z,1012.43
2019-03-12T12:01:08.134Z,1012.43
2019-03-12T12:02:08.129Z,1012.38
2019-03-12T12:03:08.149Z,1012.42
2019-03-12T12:04:08.177Z,1012.42
2019-03-12T12:05:08.200Z,1012.39
2019-03-12T12:06:08.278Z,1012.36
2019-03-12T12:07:08.227Z,1012.31
2019-03-12T12:08:08.246Z,1012.26
2019-03-12T12:09:08.266Z,1012.28
2019-03-12T12:10:08.285Z,1012.27
2019-03-12T12:11:08.306Z,1012.27
2019-03-12T12:12:08.324Z,1012.25
2019-03-12T12:13:08.343Z,1012.21
2019-03-12T12:14:08.364Z,1012.19
2019-03-12T12:15:08.383Z,1012.18
2019-03-12T12:16:08.402Z,1012.14
2019-03-12T12:17:08.421Z,1012.17
2019-03-12T12:18:08.446Z,1012.17
2019-03-12T12:19:08.461Z,1012.06
2019-03-12T12:20:08.482Z,1012.01
2019-03-12T12:21:08.501Z,1011.95
2019-03-12T12:22:08.521Z,1011.94
2019-03-12T12:23:08.541Z,1011.91
2019-03-12T12:24:08.560Z,1011.93
2019-03-12T12:26:08.605Z,1011.85
2019-03-12T12:27:08.620Z,1011.87
2019-03-12T12:28:08.640Z,1011.87
2019-03-12T12:29:08.661Z,1011.84
2019-03-12T12:30:08.680Z,1011.81
2019-03-12T12:31:08.699Z,1011.87
2019-03-12T12:32:08.718Z,1011.78
2019-03-12T12:33:08.739Z,1011.83
2019-03-12T12:34:08.760Z,1011.81
2019-03-12T12:35:08.778Z,1011.76
2019-03-12T12:36:08.798Z,1011.8
2019-03-12T12:37:08.817Z,1011.76
2019-03-12T12:38:08.840Z,1011.69
2019-03-12T12:39:08.856Z,1011.64
2019-03-12T12:40:08.877Z,1011.66
2019-03-12T12:42:08.916Z,1011.62
2019-03-12T12:43:08.937Z,1011.61
2019-03-12T12:44:08.955Z,1011.54
2019-03-12T12:45:08.975Z,1011.51
2019-03-12T12:46:08.994Z,1011.37
2019-03-12T12:47:09.015Z,1011.42
2019-03-12T12:48:09.033Z,1011.48
2019-03-12T12:49:09.053Z,1011.43